Hastings, MI (49058)

2:41 PM EDT on May 30, 2015 (GMT -0400)
Irving Township | | Change Station
CLOSE
Current Station
Personal Weather Station
Location: Middleville, MI
Elevation: 856 ft
Nearby Weather Stations

Elev 856 ft 42.70 °N, 85.40 °W | Updated 28 seconds ago

Overcast
Overcast
68.5 °F
Feels Like 68.5 °F
N
2.4
Wind Variable Wind from West
Gusts 2.7 mph

Today
High -- | Low -- °F
--% Chance of Precip.
Yesterday
High -- | Low -- °F
Precip. -- in
6:07 AM 9:10 PM
Waxing Gibbous, 91% visible
Pressure 30.00 in
Visibility 2.5 miles
Clouds Scattered Clouds 1000 ft
Mostly Cloudy 3000 ft
Overcast 5500 ft
Dew Point 68 °F
Humidity 98%
Rainfall 0.02 in
Snow Depth Not available.
UV 3 out of 12
Pollen .70 out of 12
Air Quality Not available.
Flu Activity Sporadic
SPECI KGRR 301832Z 26006KT 2 1/2SM RA BR SCT010 BKN030 OVC055 20/18 A3000 RMK AO2 VIS NW-N 1 P0002 T02000183

More Conditions Fewer Conditions

Pressure 30.00 in
Visibility 2.5 miles
Clouds Scattered Clouds 1000 ft
Mostly Cloudy 3000 ft
Overcast 5500 ft
Dew Point 68 °F
Humidity 98%
Rainfall 0.02 in
Snow Depth Not available.
UV 3 out of 12
Pollen .70 out of 12
Air Quality Not available.
Flu Activity Sporadic
SPECI KGRR 301832Z 26006KT 2 1/2SM RA BR SCT010 BKN030 OVC055 20/18 A3000 RMK AO2 VIS NW-N 1 P0002 T02000183

More Conditions Fewer Conditions

10-Day Weather Forecast

Almanac

Astronomy

May. 30, 2015 Rise Set
Actual Time
Civil Twilight
Nautical Twilight
Astronomical Twilight
Moon
Length of Visible Light
Length of Day
Tomorrow will be .
, % of the Moon is Illuminated

Today's Extremes

State Highs State Lows

Community

WunderPhotos

Upload Photos

1,825,610 photos uploaded!

WunderBlogs® & News

Nearby

Air Quality

  Air Quality AQ Index Pollutant
Not available.

Snow Depth

Station Depth Elevation

Earthquake Activity

City Distance Mag. Time & Date
Minimum magnitude displayed is 2.5.

Coastal Water Temperatures

Place Temperature

Stations

Nearby Weather Stations

Station Location Temp. Windchill Dew Point Humidity Wind Precip. Elev Updated Type